Time;durP1;ratioP1;P1;durP2;ratioP2;P2;SDS_P1;SDS_P2;PMS_P1;PMS_P2;Temp;Humidity;BMP_temperature;BMP_pressure;BME280_temperature;BME280_humidity;BME280_pressure;Samples;Min_cycle;Max_cycle;Signal;HPM_P1;HPM_P2
2024/04/16 00:01:27;;;;;;;10.70;6.10;;;;;;;20.78;53.12;100373.11;110659;1263;22136;-53
2024/04/16 00:03:54;;;;;;;13.40;7.20;;;;;;;20.78;53.13;100371.31;109121;1257;1003183;-54
2024/04/16 00:06:21;;;;;;;18.60;6.80;;;;;;;20.80;53.15;100371.73;110621;1256;22259;-53
2024/04/16 00:08:50;;;;;;;16.90;6.60;;;;;;;20.81;53.13;100374.13;110407;1259;23043;-53
2024/04/16 00:11:17;;;;;;;21.30;6.50;;;;;;;20.79;53.36;100371.41;110686;1256;23197;-53
2024/04/16 00:13:43;;;;;;;11.10;6.60;;;;;;;20.78;53.47;100367.61;110648;1257;22240;-53
2024/04/16 00:16:42;;;;;;;16.50;7.10;;;;;;;20.79;53.66;100366.34;110001;1265;22181;-53
2024/04/16 00:19:09;;;;;;;14.80;6.70;;;;;;;20.79;53.65;100369.34;110001;1269;22390;-53
2024/04/16 00:21:36;;;;;;;12.00;5.80;;;;;;;20.79;53.68;100372.65;110012;1276;22439;-53
2024/04/16 00:24:03;;;;;;;11.60;6.40;;;;;;;20.79;53.70;100369.32;110129;1263;22179;-53
2024/04/16 00:26:30;;;;;;;11.40;6.40;;;;;;;20.80;53.75;100367.00;110121;1270;22146;-53
2024/04/16 00:28:57;;;;;;;16.10;6.70;;;;;;;20.78;53.70;100362.90;109353;1269;1002516;-53
2024/04/16 00:31:24;;;;;;;16.00;7.00;;;;;;;20.77;53.77;100366.66;110131;1269;22202;-53
2024/04/16 00:33:51;;;;;;;14.30;7.60;;;;;;;20.76;53.76;100373.05;110114;1263;22203;-53
2024/04/16 00:36:18;;;;;;;15.00;7.10;;;;;;;20.75;53.77;100370.32;110133;1267;22361;-53
2024/04/16 00:38:44;;;;;;;12.40;7.10;;;;;;;20.74;53.80;100366.30;110135;1266;22187;-53
2024/04/16 00:41:11;;;;;;;14.00;7.10;;;;;;;20.74;53.68;100363.54;106350;1263;1003231;-53
2024/04/16 00:43:38;;;;;;;14.80;6.80;;;;;;;20.71;53.61;100363.21;110154;1263;22401;-53
2024/04/16 00:46:05;;;;;;;12.00;6.50;;;;;;;20.69;53.67;100360.88;110130;1270;22171;-53
2024/04/16 00:48:32;;;;;;;16.10;7.00;;;;;;;20.66;53.66;100357.89;110112;1269;23106;-53
2024/04/16 00:50:59;;;;;;;13.70;7.10;;;;;;;20.65;53.51;100361.36;110136;1257;22289;-53
2024/04/16 00:53:27;;;;;;;18.90;7.90;;;;;;;20.62;53.42;100361.20;110532;1262;22389;-54
2024/04/16 00:55:55;;;;;;;15.70;7.10;;;;;;;20.60;53.43;100359.42;110467;1259;22436;-53
2024/04/16 00:58:22;;;;;;;18.40;8.90;;;;;;;20.58;53.37;100359.56;110714;1257;22111;-53
2024/04/16 01:00:48;;;;;;;24.80;9.70;;;;;;;20.56;53.42;100360.94;110671;1257;22339;-53
2024/04/16 01:03:15;;;;;;;17.00;7.20;;;;;;;20.54;53.49;100355.78;110642;1270;22118;-53
2024/04/16 01:05:42;;;;;;;16.30;7.40;;;;;;;20.52;53.35;100355.38;110617;1263;22426;-53
2024/04/16 01:08:09;;;;;;;11.00;6.60;;;;;;;20.51;53.47;100353.15;110689;1256;22364;-53
2024/04/16 01:10:40;;;;;;;14.80;7.10;;;;;;;20.50;53.65;100356.92;110607;1263;22483;-53
2024/04/16 01:13:10;;;;;;;15.50;7.10;;;;;;;20.48;53.73;100349.13;110632;1256;23051;-53
2024/04/16 01:15:37;;;;;;;13.30;7.30;;;;;;;20.47;53.89;100351.83;110522;1267;22992;-53
2024/04/16 01:18:05;;;;;;;12.80;6.70;;;;;;;20.46;53.88;100348.06;110604;1256;22334;-53
2024/04/16 01:20:36;;;;;;;17.50;7.40;;;;;;;20.44;54.03;100350.11;110475;1257;22350;-53
2024/04/16 01:23:03;;;;;;;22.90;8.20;;;;;;;20.42;54.20;100352.73;110290;1274;22414;-53
2024/04/16 01:25:31;;;;;;;11.40;6.80;;;;;;;20.42;54.06;100351.16;110655;1256;22402;-53
2024/04/16 01:27:58;;;;;;;19.00;7.40;;;;;;;20.42;54.15;100347.61;110636;1263;22251;-53
2024/04/16 01:30:25;;;;;;;16.80;7.50;;;;;;;20.43;54.37;100347.39;110656;1255;22805;-53
2024/04/16 01:32:52;;;;;;;11.80;6.70;;;;;;;20.42;54.47;100340.39;110432;1270;23304;-53
2024/04/16 01:35:19;;;;;;;17.10;7.10;;;;;;;20.42;54.39;100337.63;110611;1263;23226;-53
2024/04/16 01:37:46;;;;;;;18.30;7.80;;;;;;;20.40;54.37;100335.42;110569;1274;22436;-53
2024/04/16 01:40:13;;;;;;;16.20;7.40;;;;;;;20.38;54.30;100336.42;110626;1263;22256;-53
2024/04/16 01:42:40;;;;;;;13.60;7.20;;;;;;;20.37;54.17;100339.86;110451;1261;23043;-53
2024/04/16 01:45:07;;;;;;;15.50;6.80;;;;;;;20.35;54.32;100338.41;110643;1256;22270;-53
2024/04/16 01:47:34;;;;;;;15.60;7.10;;;;;;;20.34;54.46;100336.71;110651;1254;22361;-53
2024/04/16 01:50:01;;;;;;;15.80;7.40;;;;;;;20.34;54.45;100332.83;110616;1256;22275;-53
2024/04/16 01:52:28;;;;;;;17.30;6.60;;;;;;;20.34;54.44;100331.64;110642;1256;22282;-53
2024/04/16 01:54:55;;;;;;;17.50;7.80;;;;;;;20.33;54.47;100327.14;110488;1270;22274;-53
2024/04/16 01:57:22;;;;;;;14.70;7.30;;;;;;;20.32;54.48;100328.44;110615;1257;23154;-53
2024/04/16 01:59:48;;;;;;;12.90;7.00;;;;;;;20.31;54.38;100327.45;110609;1256;22438;-53
2024/04/16 02:02:15;;;;;;;13.90;7.10;;;;;;;20.31;54.41;100331.16;110666;1254;22305;-53
2024/04/16 02:04:42;;;;;;;14.90;6.70;;;;;;;20.31;54.42;100323.07;110651;1257;22353;-53
2024/04/16 02:07:09;;;;;;;20.20;7.40;;;;;;;20.30;54.41;100325.58;110646;1251;22261;-53
2024/04/16 02:09:36;;;;;;;16.40;8.00;;;;;;;20.29;54.53;100326.50;109832;1256;1002376;-53
2024/04/16 02:12:03;;;;;;;16.50;6.90;;;;;;;20.30;54.59;100328.55;110582;1260;22410;-53
2024/04/16 02:14:30;;;;;;;16.30;7.80;;;;;;;20.29;54.51;100335.65;110472;1258;22153;-54
2024/04/16 02:16:57;;;;;;;13.50;6.50;;;;;;;20.29;54.60;100341.33;110466;1260;22260;-53
2024/04/16 02:19:24;;;;;;;16.20;6.90;;;;;;;20.30;54.65;100338.07;110651;1256;22392;-53
2024/04/16 02:21:51;;;;;;;13.60;7.00;;;;;;;20.32;54.75;100327.71;110587;1264;23258;-53
2024/04/16 02:24:18;;;;;;;17.40;8.30;;;;;;;20.33;54.80;100327.77;110590;1255;22852;-53
2024/04/16 02:26:44;;;;;;;22.10;8.30;;;;;;;20.36;54.83;100331.45;110590;1254;22294;-53
2024/04/16 02:29:11;;;;;;;20.50;8.60;;;;;;;20.38;54.63;100345.58;110615;1257;22118;-55
2024/04/16 02:31:38;;;;;;;17.50;7.60;;;;;;;20.40;54.58;100345.13;110615;1258;22124;-53
2024/04/16 02:34:05;;;;;;;17.70;7.60;;;;;;;20.40;54.62;100345.86;110683;1257;22261;-53
2024/04/16 02:36:32;;;;;;;12.60;7.10;;;;;;;20.40;54.89;100347.41;110656;1263;22268;-53
2024/04/16 02:38:59;;;;;;;16.60;7.90;;;;;;;20.42;54.97;100338.48;110619;1260;23266;-53
2024/04/16 02:41:25;;;;;;;16.70;7.90;;;;;;;20.44;54.96;100344.30;110625;1257;22115;-53
2024/04/16 02:43:52;;;;;;;16.20;7.90;;;;;;;20.46;54.94;100343.10;110601;1266;22506;-53
2024/04/16 02:46:20;;;;;;;17.90;8.10;;;;;;;20.48;55.01;100345.27;110600;1254;22095;-53
2024/04/16 02:48:46;;;;;;;14.40;7.20;;;;;;;20.51;54.98;100347.20;110635;1251;22117;-53
2024/04/16 02:51:14;;;;;;;15.00;7.40;;;;;;;20.53;55.07;100351.07;110499;1257;22766;-53
2024/04/16 02:53:41;;;;;;;16.40;7.70;;;;;;;20.56;55.17;100351.05;110623;1254;23254;-53
2024/04/16 02:56:07;;;;;;;14.50;7.40;;;;;;;20.58;55.11;100351.94;110608;1257;22123;-53
2024/04/16 02:58:34;;;;;;;16.00;7.80;;;;;;;20.60;54.93;100343.39;110513;1257;22337;-53
2024/04/16 03:01:05;;;;;;;15.40;8.20;;;;;;;20.60;54.72;100344.61;110644;1251;22113;-53
2024/04/16 03:03:33;;;;;;;15.80;7.90;;;;;;;20.59;54.80;100343.05;110413;1260;22522;-53
2024/04/16 03:06:01;;;;;;;13.40;7.20;;;;;;;20.61;55.01;100340.33;110613;1254;22393;-53
2024/04/16 03:08:28;;;;;;;13.40;7.00;;;;;;;20.63;55.04;100340.18;110602;1263;22386;-53
2024/04/16 03:11:01;;;;;;;16.90;7.60;;;;;;;20.65;55.12;100338.77;110297;1267;22148;-53
2024/04/16 03:13:27;;;;;;;19.00;7.90;;;;;;;20.69;55.11;100337.79;110136;1264;22525;-53
2024/04/16 03:15:54;;;;;;;15.00;7.70;;;;;;;20.71;54.97;100340.61;110612;1254;22386;-53
2024/04/16 03:18:21;;;;;;;24.70;8.40;;;;;;;20.74;54.88;100348.04;110450;1257;22429;-53
2024/04/16 03:20:57;;;;;;;17.10;7.90;;;;;;;20.77;54.68;100350.29;110628;1251;23106;-53
2024/04/16 03:23:23;;;;;;;17.50;8.30;;;;;;;20.78;54.43;100347.20;110610;1254;22075;-53
2024/04/16 03:25:50;;;;;;;21.40;8.10;;;;;;;20.79;54.43;100348.01;110641;1251;23142;-53
2024/04/16 03:28:17;;;;;;;11.70;6.90;;;;;;;20.82;54.42;100354.66;110638;1256;22398;-53
2024/04/16 03:30:43;;;;;;;21.90;8.50;;;;;;;20.84;54.19;100359.99;110577;1256;22209;-53
2024/04/16 03:33:10;;;;;;;21.10;8.50;;;;;;;20.85;54.24;100352.66;110460;1264;22330;-53
2024/04/16 03:35:37;;;;;;;22.50;8.50;;;;;;;20.88;54.18;100343.85;110650;1254;22801;-53
2024/04/16 03:38:04;;;;;;;36.60;10.90;;;;;;;20.91;54.28;100352.77;110647;1254;22404;-53
2024/04/16 03:40:31;;;;;;;26.40;9.90;;;;;;;20.92;53.58;100349.55;110371;1275;23308;-53
2024/04/16 03:42:58;;;;;;;18.80;9.10;;;;;;;20.89;53.31;100348.50;110655;1256;22387;-53
2024/04/16 03:45:25;;;;;;;17.20;7.70;;;;;;;20.86;53.34;100346.29;110583;1263;22212;-53
2024/04/16 03:47:52;;;;;;;18.10;8.40;;;;;;;20.83;53.29;100345.98;110648;1251;22466;-53
2024/04/16 03:50:18;;;;;;;21.30;7.80;;;;;;;20.79;53.16;100344.66;110419;1262;23061;-53
2024/04/16 03:52:45;;;;;;;19.80;7.80;;;;;;;20.74;53.07;100347.31;110634;1250;22828;-53
2024/04/16 03:55:12;;;;;;;21.30;9.20;;;;;;;20.72;53.15;100355.59;110612;1259;23014;-53
2024/04/16 03:57:39;;;;;;;22.10;9.10;;;;;;;20.69;53.07;100350.48;110648;1260;22215;-53
2024/04/16 04:02:53;;;;;;;22.80;7.50;;;;;;;20.61;52.69;100361.08;110441;1259;22376;-53
2024/04/16 04:05:20;;;;;;;17.50;7.40;;;;;;;20.58;52.74;100364.33;110426;1269;23021;-53
2024/04/16 04:07:47;;;;;;;14.70;7.00;;;;;;;20.55;52.76;100359.06;110611;1260;22127;-53
2024/04/16 04:10:16;;;;;;;22.40;7.70;;;;;;;20.52;52.89;100360.49;110625;1261;22109;-53
2024/04/16 04:12:43;;;;;;;21.00;8.00;;;;;;;20.52;53.22;100360.16;110438;1257;23178;-53
2024/04/16 04:15:10;;;;;;;25.60;8.90;;;;;;;20.52;53.19;100364.17;110663;1251;22148;-53
2024/04/16 04:17:37;;;;;;;18.10;7.90;;;;;;;20.55;53.05;100367.34;110612;1251;22476;-53
2024/04/16 04:20:04;;;;;;;20.10;8.30;;;;;;;20.57;52.92;100366.33;110614;1260;22308;-53
2024/04/16 04:22:31;;;;;;;19.10;7.40;;;;;;;20.57;52.93;100361.52;110639;1256;22308;-54
2024/04/16 04:24:58;;;;;;;16.90;7.10;;;;;;;20.59;52.50;100363.37;110454;1259;22112;-53
2024/04/16 04:27:25;;;;;;;14.20;6.50;;;;;;;20.59;52.58;100366.33;110617;1250;22325;-53
2024/04/16 04:29:52;;;;;;;18.50;7.80;;;;;;;20.60;52.72;100365.55;110692;1254;22327;-53
2024/04/16 04:32:18;;;;;;;15.90;7.10;;;;;;;20.61;52.90;100364.82;110621;1254;22118;-53
2024/04/16 04:34:45;;;;;;;16.50;7.20;;;;;;;20.63;53.26;100359.15;110465;1263;22163;-53
2024/04/16 04:37:12;;;;;;;13.80;6.90;;;;;;;20.66;53.22;100357.58;110661;1251;22119;-53
2024/04/16 04:39:39;;;;;;;16.80;7.60;;;;;;;20.70;53.08;100355.88;110605;1251;23211;-53
2024/04/16 04:42:06;;;;;;;14.00;7.20;;;;;;;20.72;53.16;100352.21;110443;1263;22394;-53
2024/04/16 04:44:34;;;;;;;18.20;8.80;;;;;;;20.75;52.92;100353.02;110676;1254;22232;-54
2024/04/16 04:47:01;;;;;;;16.00;7.20;;;;;;;20.79;52.69;100353.67;110614;1260;22908;-53
2024/04/16 04:49:28;;;;;;;18.00;7.70;;;;;;;20.78;52.52;100350.17;110613;1259;22311;-53
2024/04/16 04:51:55;;;;;;;18.50;7.60;;;;;;;20.78;52.55;100348.92;110613;1274;22401;-53
2024/04/16 04:54:22;;;;;;;18.90;7.00;;;;;;;20.78;52.61;100352.29;110570;1266;22369;-53
2024/04/16 04:56:49;;;;;;;20.40;7.60;;;;;;;20.81;52.72;100357.89;110607;1274;22896;-53
2024/04/16 04:59:16;;;;;;;19.20;7.60;;;;;;;20.83;52.66;100353.72;110588;1267;22171;-53
2024/04/16 05:01:43;;;;;;;21.00;8.80;;;;;;;20.84;52.48;100351.69;110439;1269;22313;-53
2024/04/16 05:04:10;;;;;;;19.10;8.30;;;;;;;20.86;52.20;100348.72;110603;1266;22392;-53
2024/04/16 05:06:38;;;;;;;16.00;7.00;;;;;;;20.87;51.88;100348.33;110616;1274;22051;-53
2024/04/16 05:09:05;;;;;;;14.60;7.20;;;;;;;20.88;51.57;100348.41;110410;1267;22376;-53
2024/04/16 05:11:33;;;;;;;13.00;7.20;;;;;;;20.87;51.55;100345.85;109857;1266;1002966;-53
2024/04/16 05:14:00;;;;;;;18.80;7.30;;;;;;;20.87;51.65;100343.73;110614;1267;22324;-53
2024/04/16 05:16:27;;;;;;;18.70;6.80;;;;;;;20.87;51.44;100334.36;110584;1269;23078;-53
2024/04/16 05:18:54;;;;;;;17.30;7.30;;;;;;;20.88;51.29;100335.73;110600;1267;23343;-53
2024/04/16 05:21:21;;;;;;;16.10;7.40;;;;;;;20.85;51.45;100341.02;109837;1266;1003097;-53
2024/04/16 05:23:49;;;;;;;17.10;6.90;;;;;;;20.85;51.89;100339.63;110552;1270;22682;-53
2024/04/16 05:26:16;;;;;;;17.10;7.20;;;;;;;20.88;52.12;100335.75;110631;1266;22359;-53
2024/04/16 05:28:43;;;;;;;16.70;7.20;;;;;;;20.89;51.94;100332.64;110593;1267;22349;-53
2024/04/16 05:31:10;;;;;;;13.00;7.30;;;;;;;20.90;51.81;100326.61;110615;1266;22426;-53
2024/04/16 05:33:37;;;;;;;13.50;6.70;;;;;;;20.90;51.74;100331.20;110608;1266;22828;-53
2024/04/16 05:36:04;;;;;;;15.80;7.70;;;;;;;20.90;51.60;100332.57;110572;1266;22351;-53
2024/04/16 05:38:33;;;;;;;14.20;6.90;;;;;;;20.92;51.97;100326.96;109885;1266;1002573;-53
2024/04/16 05:41:02;;;;;;;13.00;6.80;;;;;;;21.00;52.34;100325.38;110628;1266;22248;-53
2024/04/16 05:43:29;;;;;;;14.00;6.70;;;;;;;21.16;52.00;100320.70;110591;1267;22415;-53
2024/04/16 05:45:56;;;;;;;15.30;6.70;;;;;;;21.32;51.24;100313.17;110559;1267;22351;-53
2024/04/16 05:48:23;;;;;;;14.60;6.80;;;;;;;21.43;50.83;100312.86;110566;1269;22436;-54
2024/04/16 05:50:50;;;;;;;16.50;7.40;;;;;;;21.51;50.14;100311.09;110468;1266;22838;-53
2024/04/16 05:53:16;;;;;;;17.00;6.40;;;;;;;21.53;49.81;100302.09;110488;1266;23328;-53
2024/04/16 05:55:44;;;;;;;13.50;6.40;;;;;;;21.54;49.76;100309.91;110628;1267;22406;-53
2024/04/16 05:58:11;;;;;;;12.90;7.00;;;;;;;21.57;49.70;100316.22;110618;1267;22873;-53
2024/04/16 06:00:39;;;;;;;13.50;6.70;;;;;;;21.66;49.72;100315.89;110621;1266;22262;-53
2024/04/16 06:03:07;;;;;;;12.80;6.90;;;;;;;21.83;49.50;100319.59;110460;1274;22294;-53
2024/04/16 06:05:34;;;;;;;17.50;7.10;;;;;;;22.05;49.12;100319.00;110447;1269;22177;-53
2024/04/16 06:08:01;;;;;;;18.30;7.40;;;;;;;22.34;48.80;100311.60;110594;1274;22275;-53
2024/04/16 06:10:28;;;;;;;27.40;7.80;;;;;;;22.70;48.32;100309.48;110642;1266;22910;-53
2024/04/16 06:12:55;;;;;;;10.90;6.30;;;;;;;23.12;47.68;100311.08;110604;1271;22895;-53
2024/04/16 06:15:22;;;;;;;19.10;6.80;;;;;;;23.53;46.81;100309.80;110628;1266;23223;-53
2024/04/16 06:17:49;;;;;;;13.90;7.00;;;;;;;23.92;46.05;100304.90;110581;1267;22342;-53
2024/04/16 06:20:16;;;;;;;17.20;6.70;;;;;;;24.26;45.20;100305.79;110572;1266;22116;-54
2024/04/16 06:22:46;;;;;;;14.90;6.30;;;;;;;24.49;44.61;100307.39;110505;1263;23152;-54
2024/04/16 06:25:13;;;;;;;20.10;6.60;;;;;;;24.60;44.17;100312.23;110553;1274;22247;-54
2024/04/16 06:27:40;;;;;;;15.00;7.00;;;;;;;24.61;43.94;100311.98;110630;1266;22205;-54
2024/04/16 06:30:07;;;;;;;19.00;7.40;;;;;;;24.58;43.85;100309.59;110637;1266;22199;-54
2024/04/16 06:32:35;;;;;;;12.80;7.70;;;;;;;24.60;44.09;100312.90;110245;1274;239084;-54
2024/04/16 06:35:02;;;;;;;13.20;6.30;;;;;;;24.65;44.14;100315.39;110596;1271;22270;-53
2024/04/16 06:37:30;;;;;;;18.30;6.30;;;;;;;24.68;44.31;100307.75;110410;1270;22170;-54
2024/04/16 06:39:57;;;;;;;11.90;6.70;;;;;;;24.73;44.35;100307.35;110585;1266;22164;-54
2024/04/16 06:42:24;;;;;;;14.90;7.40;;;;;;;24.80;43.90;100307.86;110603;1266;23036;-54
2024/04/16 06:44:51;;;;;;;14.10;6.40;;;;;;;24.83;43.45;100308.95;110647;1266;22481;-54
2024/04/16 06:47:18;;;;;;;16.80;5.80;;;;;;;24.87;42.98;100310.61;110632;1266;22114;-54
2024/04/16 06:49:45;;;;;;;11.80;6.20;;;;;;;24.86;42.60;100314.92;109825;1274;1002162;-54
2024/04/16 06:52:12;;;;;;;15.20;6.60;;;;;;;24.80;42.47;100313.84;110587;1274;22435;-54
2024/04/16 06:54:39;;;;;;;13.40;6.20;;;;;;;24.73;42.49;100311.61;110578;1266;22114;-54
2024/04/16 06:57:06;;;;;;;12.50;7.50;;;;;;;24.67;42.66;100316.08;110605;1274;22807;-54
2024/04/16 06:59:33;;;;;;;13.70;6.30;;;;;;;24.65;43.07;100316.25;110635;1266;22410;-54
2024/04/16 07:02:00;;;;;;;14.00;6.40;;;;;;;24.73;43.11;100319.05;110568;1266;22136;-54
2024/04/16 07:04:27;;;;;;;12.60;6.50;;;;;;;24.81;42.97;100323.36;110585;1274;22115;-54
2024/04/16 07:06:54;;;;;;;14.80;7.00;;;;;;;24.86;43.03;100316.91;110588;1269;22244;-54
2024/04/16 07:09:24;;;;;;;14.00;6.60;;;;;;;24.91;43.01;100313.45;110574;1266;22292;-54
2024/04/16 07:11:52;;;;;;;18.00;6.30;;;;;;;24.94;42.99;100311.75;110561;1266;22359;-55
2024/04/16 07:14:19;;;;;;;14.60;6.10;;;;;;;24.99;42.67;100311.23;110591;1266;22137;-55
2024/04/16 07:16:46;;;;;;;10.40;6.30;;;;;;;25.06;42.63;100309.77;110642;1266;22409;-54
2024/04/16 07:19:13;;;;;;;18.10;6.90;;;;;;;25.10;42.68;100315.11;110592;1267;22131;-54
2024/04/16 07:21:40;;;;;;;13.40;6.30;;;;;;;25.12;42.78;100320.55;109840;1266;1002482;-55
2024/04/16 07:24:07;;;;;;;14.30;6.80;;;;;;;25.24;42.52;100320.95;110447;1269;22493;-55
2024/04/16 07:26:34;;;;;;;15.40;7.20;;;;;;;25.27;42.50;100327.38;110233;1273;23207;-55
2024/04/16 07:29:01;;;;;;;13.00;6.40;;;;;;;25.35;42.51;100340.65;110560;1269;22431;-54
2024/04/16 07:31:28;;;;;;;12.00;6.00;;;;;;;25.44;42.59;100336.14;110434;1266;22411;-55
2024/04/16 07:34:08;;;;;;;12.10;6.30;;;;;;;25.51;42.64;100328.23;110394;1267;22388;-55
2024/04/16 07:36:35;;;;;;;15.30;7.10;;;;;;;25.53;42.75;100334.80;110532;1267;22127;-55
2024/04/16 07:39:02;;;;;;;12.80;6.40;;;;;;;25.53;42.57;100342.02;110564;1266;22560;-54
2024/04/16 07:41:29;;;;;;;13.50;6.40;;;;;;;25.55;42.23;100332.12;110558;1270;22268;-55
2024/04/16 07:43:56;;;;;;;14.00;7.20;;;;;;;25.49;42.48;100333.25;110583;1274;22374;-54
2024/04/16 07:46:23;;;;;;;19.60;7.90;;;;;;;25.45;42.48;100332.48;110555;1266;22131;-54
2024/04/16 07:48:50;;;;;;;11.90;6.90;;;;;;;25.43;42.32;100325.62;110548;1266;22181;-54
2024/04/16 07:51:17;;;;;;;16.20;6.80;;;;;;;25.34;42.27;100316.39;110581;1266;23131;-54
2024/04/16 07:53:44;;;;;;;15.60;7.00;;;;;;;25.18;42.35;100314.89;110575;1266;22322;-55
2024/04/16 07:56:11;;;;;;;15.60;6.80;;;;;;;25.01;42.59;100316.77;110575;1267;23077;-53
2024/04/16 07:58:42;;;;;;;14.70;7.50;;;;;;;24.85;42.96;100312.20;110601;1266;22515;-54
2024/04/16 08:01:09;;;;;;;15.80;7.40;;;;;;;24.74;43.40;100311.02;110419;1269;22152;-54
2024/04/16 08:03:36;;;;;;;17.30;8.00;;;;;;;24.67;43.69;100307.33;110580;1267;22437;-54
2024/04/16 08:06:04;;;;;;;16.00;7.40;;;;;;;24.64;43.25;100307.48;110597;1274;22528;-55
2024/04/16 08:08:32;;;;;;;13.10;7.00;;;;;;;24.62;42.91;100309.96;110555;1266;22377;-54
2024/04/16 08:11:12;;;;;;;;;;;;;;;24.61;42.89;100319.23;110595;1266;22437;-54
2024/04/16 08:13:39;;;;;;;14.90;6.70;;;;;;;24.60;43.44;100324.52;110558;1274;22359;-54
2024/04/16 08:16:07;;;;;;;16.50;6.50;;;;;;;24.56;43.85;100320.19;110557;1266;22629;-56
2024/04/16 08:18:34;;;;;;;16.10;6.70;;;;;;;24.55;44.26;100311.64;110588;1267;22428;-53
2024/04/16 08:21:01;;;;;;;14.40;7.40;;;;;;;24.55;44.66;100311.81;110567;1266;22536;-54
2024/04/16 08:23:29;;;;;;;16.30;6.80;;;;;;;24.60;44.65;100321.49;110581;1270;22932;-55
2024/04/16 08:26:02;;;;;;;15.90;7.10;;;;;;;24.68;44.60;100325.77;110537;1274;23026;-53
2024/04/16 08:28:35;;;;;;;13.80;7.40;;;;;;;24.75;44.83;100327.77;110420;1267;22085;-55
2024/04/16 08:31:04;;;;;;;14.10;7.20;;;;;;;24.82;44.99;100325.39;110443;1271;22344;-55
2024/04/16 08:33:31;;;;;;;19.10;7.80;;;;;;;24.94;45.12;100318.49;110404;1269;22316;-54
2024/04/16 08:35:58;;;;;;;18.80;7.20;;;;;;;25.07;44.56;100317.29;110620;1266;23298;-54
2024/04/16 08:38:25;;;;;;;18.80;7.10;;;;;;;25.19;44.13;100313.73;110577;1267;22434;-53
2024/04/16 08:40:53;;;;;;;14.30;6.90;;;;;;;25.33;43.19;100313.02;110498;1269;22361;-53
2024/04/16 08:43:20;;;;;;;14.80;6.90;;;;;;;25.42;42.32;100300.65;110300;1272;22457;-52
2024/04/16 08:45:47;;;;;;;13.80;7.00;;;;;;;25.47;41.70;100300.33;110498;1267;22510;-54
2024/04/16 08:48:14;;;;;;;18.80;6.80;;;;;;;25.48;41.36;100307.54;110173;1269;22148;-55
2024/04/16 10:36:21;;;;;;;10.60;5.70;;;;;;;22.94;50.60;100270.60;104915;1295;560656;-54
2024/04/16 10:38:48;;;;;;;14.90;6.00;;;;;;;24.96;45.42;100274.09;106003;1282;25396;-55
2024/04/16 10:41:15;;;;;;;7.50;4.80;;;;;;;25.27;44.53;100261.67;106312;1280;25485;-55
2024/04/16 10:43:42;;;;;;;10.30;5.80;;;;;;;25.48;43.93;100256.71;106110;1280;25389;-55
2024/04/16 10:46:09;;;;;;;11.90;5.20;;;;;;;25.65;43.49;100253.92;105939;1285;25441;-55
2024/04/16 10:48:37;;;;;;;10.60;5.10;;;;;;;25.81;43.21;100253.98;104357;1285;1003392;-55
2024/04/16 10:51:11;;;;;;;11.10;5.30;;;;;;;25.94;42.75;100248.23;106283;1285;23891;-55
2024/04/16 10:53:38;;;;;;;11.90;5.40;;;;;;;26.04;42.18;100240.37;106393;1279;22545;-55
2024/04/16 10:56:07;;;;;;;13.20;5.50;;;;;;;26.13;42.15;100232.08;106372;1263;25397;-55
2024/04/16 10:58:34;;;;;;;11.60;5.30;;;;;;;26.23;42.01;100227.86;107154;1267;24368;-55
2024/04/16 11:01:01;;;;;;;14.70;6.30;;;;;;;26.35;42.04;100228.14;106946;1267;25436;-55
2024/04/16 11:03:32;;;;;;;13.60;6.50;;;;;;;26.44;41.87;100226.88;106336;1273;1002841;-55
2024/04/16 11:05:59;;;;;;;10.00;5.50;;;;;;;26.50;41.58;100222.41;107139;1267;25366;-55
2024/04/16 11:08:26;;;;;;;11.70;6.30;;;;;;;26.56;41.19;100223.54;107138;1267;23879;-56
2024/04/16 11:10:54;;;;;;;12.30;6.10;;;;;;;26.51;40.98;100225.36;107172;1266;25443;-55
2024/04/16 11:13:21;;;;;;;9.90;5.50;;;;;;;26.34;41.21;100228.77;106814;1267;25369;-56
2024/04/16 11:15:48;;;;;;;12.40;6.60;;;;;;;26.29;41.21;100222.48;107124;1267;23864;-55
2024/04/16 11:18:15;;;;;;;13.10;5.60;;;;;;;26.29;41.49;100222.10;107194;1267;23126;-55
2024/04/16 11:20:43;;;;;;;13.70;6.10;;;;;;;26.30;41.62;100222.08;107130;1267;25469;-56
2024/04/16 11:23:10;;;;;;;14.70;6.10;;;;;;;26.30;41.32;100223.52;107350;1267;25332;-56
2024/04/16 11:25:46;;;;;;;16.00;7.10;;;;;;;26.57;40.75;100221.04;107226;1267;25516;-56
2024/04/16 11:28:14;;;;;;;14.80;6.40;;;;;;;26.71;40.16;100222.13;107102;1272;25350;-56
2024/04/16 11:30:55;;;;;;;13.60;6.80;;;;;;;26.70;39.92;100217.20;107404;1267;25344;-56
2024/04/16 11:33:24;;;;;;;11.90;6.00;;;;;;;26.67;39.73;100217.02;107345;1257;25337;-56
2024/04/16 11:36:03;;;;;;;8.40;5.50;;;;;;;26.61;39.44;100214.35;107443;1251;28164;-56
2024/04/16 11:38:32;;;;;;;6.60;5.00;;;;;;;26.53;39.46;100208.61;107472;1257;25401;-56
2024/04/16 11:41:00;;;;;;;9.80;4.90;;;;;;;26.44;39.71;100204.48;107035;1273;22553;-56
2024/04/16 11:43:39;;;;;;;9.50;5.60;;;;;;;26.38;39.90;100210.21;107177;1267;23244;-55
2024/04/16 11:46:07;;;;;;;11.00;5.60;;;;;;;26.34;39.86;100208.34;107617;1257;25388;-56
2024/04/16 11:48:37;;;;;;;14.50;5.80;;;;;;;26.32;39.79;100213.50;107627;1256;22556;-56
2024/04/16 11:51:08;;;;;;;6.00;4.80;;;;;;;26.31;39.52;100213.05;107282;1267;25350;-56
2024/04/16 11:53:37;;;;;;;8.70;5.70;;;;;;;26.29;39.74;100213.23;107151;1267;25332;-56
2024/04/16 11:56:07;;;;;;;10.30;4.90;;;;;;;26.26;39.81;100216.20;106886;1270;25413;-57
2024/04/16 11:58:40;;;;;;;8.60;5.50;;;;;;;26.22;39.75;100220.70;107027;1267;25365;-56
2024/04/16 12:01:09;;;;;;;10.00;5.70;;;;;;;26.19;39.67;100220.27;107198;1267;24212;-56
2024/04/16 12:03:36;;;;;;;11.90;5.70;;;;;;;26.18;39.84;100221.21;107198;1267;25378;-55
2024/04/16 12:06:04;;;;;;;11.20;5.60;;;;;;;26.20;40.06;100209.84;107346;1266;25410;-56
2024/04/16 12:08:31;;;;;;;10.60;5.10;;;;;;;26.22;39.94;100211.24;107251;1257;22550;-55
2024/04/16 12:10:59;;;;;;;9.50;5.60;;;;;;;26.25;39.81;100210.28;107243;1267;25599;-55
2024/04/16 12:13:26;;;;;;;10.70;5.20;;;;;;;26.26;40.10;100209.42;107319;1270;22693;-55
2024/04/16 12:15:53;;;;;;;10.60;5.30;;;;;;;26.28;40.19;100212.09;107076;1270;25378;-55
2024/04/16 12:18:20;;;;;;;11.00;5.50;;;;;;;26.28;40.18;100212.26;107081;1267;25459;-56
2024/04/16 12:20:47;;;;;;;9.90;5.50;;;;;;;26.26;40.26;100209.77;107273;1270;22647;-56
2024/04/16 12:23:14;;;;;;;8.50;5.50;;;;;;;26.22;40.42;100211.43;106975;1273;25407;-56
2024/04/16 12:25:43;;;;;;;11.80;5.70;;;;;;;26.16;40.47;100201.91;107124;1274;25371;-55
2024/04/16 12:28:12;;;;;;;9.70;5.80;;;;;;;26.10;40.57;100194.67;106980;1274;25381;-55
2024/04/16 12:30:40;;;;;;;9.60;5.00;;;;;;;26.06;40.34;100188.06;107058;1267;25422;-55
2024/04/16 12:33:07;;;;;;;6.60;5.10;;;;;;;26.01;40.26;100184.45;107547;1257;25408;-55
2024/04/16 12:35:43;;;;;;;10.20;5.60;;;;;;;25.96;40.26;100185.27;107579;1252;25349;-55
2024/04/16 12:38:10;;;;;;;12.80;5.90;;;;;;;25.87;40.38;100176.02;107135;1269;25451;-55
2024/04/16 12:40:37;;;;;;;7.80;5.40;;;;;;;25.81;40.61;100175.86;107024;1270;25531;-55
2024/04/16 12:43:05;;;;;;;12.60;5.30;;;;;;;25.77;40.49;100178.14;107386;1273;23861;-55
2024/04/16 12:45:32;;;;;;;8.10;5.20;;;;;;;25.77;40.46;100182.63;107197;1266;25495;-56
2024/04/16 12:47:59;;;;;;;9.00;5.50;;;;;;;25.73;40.55;100178.95;107047;1267;25375;-56
2024/04/16 12:50:27;;;;;;;10.70;6.30;;;;;;;25.70;40.48;100179.77;107372;1267;25494;-55
2024/04/16 12:52:54;;;;;;;9.70;6.40;;;;;;;25.65;40.28;100173.14;107077;1270;24262;-55
2024/04/16 12:55:21;;;;;;;10.40;5.90;;;;;;;25.60;40.27;100161.52;107256;1256;25475;-56
2024/04/16 12:57:49;;;;;;;13.90;6.30;;;;;;;25.56;40.39;100166.65;106906;1273;25373;-55
2024/04/16 13:00:17;;;;;;;9.60;5.70;;;;;;;25.54;40.35;100166.91;107387;1266;24042;-55